« 岐阜基地航空祭2019【飛行編1】 岐阜飛行場 2019/11/10 sun | トップページ | 定点 富山空港 2019/11/16 sat »

2019/11/14

岐阜基地航空祭2019【飛行編2】 岐阜飛行場 2019/11/10 sun

その1からつづき

METAR RJNG 100300Z VRB03KT 9999 FEW030 18/01 Q1013 RMK 1CU030 A2994

20191110_rjng_200f676907

北地区での展示観覧に時間を要し、南へ戻る間も無くフライト準備が始まってしまった。

20191110_rjng_201f038105

F-2さんエンジン掛かるのハヤ!

20191110_rjng_202f078431

お爺さんはプレシャーカウント中

20191110_rjng_203f028801

モウモウは鳴き終り

METAR RJNG 100400Z 28003KT 210V350 9999 FEW030 18/01 Q1013 RMK
1CU030 A2992

20191110_rjng_204f078431

例年の場所まで移動して、フライト開始

20191110_rjng_205c781024

二番手のボクサーさん

20191110_rjng_206c781024

先発のお爺さん二機にチェイスされての離陸でした。

20191110_rjng_207f

バイキングさんは

20191110_rjng_208f

パッカーン

20191110_rjng_209f

シリウスさんもパッカーン

20191110_rjng_210f038105

20191110_rjng_211f128928

ブルーさんがソロ

20191110_rjng_212f128928

20191110_rjng_213f638102

F-2さんのソロはシルバーさん

20191110_rjng_214f638102

20191110_rjng_215f578357

空野郎

20191110_rjng_216f578357

15や2には負けてませんよ!

20191110_rjng_217m

大編隊が犬山から

20191110_rjng_218m

20191110_rjng_219f128928

幕間はブレイクした15さん

20191110_rjng_220f128928

12-8928 F-15J ADTW M-B

20191110_rjng_221f128928

20191110_rjng_222m

TPCのT

20191110_rjng_223m

20191110_rjng_224m

F-2さんがブレイクして

20191110_rjng_225f638502

20191110_rjng_226f638502

63-8502 F-2A ADTW M-SILVER

20191110_rjng_227m

ランディングライト・オン

20191110_rjng_228m

20191110_rjng_229m

20191110_rjng_230m

C-1さんがブレイクして

20191110_rjng_231c781024

お腹を開けてフライト

20191110_rjng_232c781024

78-1024 C-1 ADTW M-B

20191110_rjng_233c781024

20191110_rjng_234f078431

78-8431 F-4EJk ADTW M-GRAY1

20191110_rjng_235f478336

47-8336 F-4EJ ADTW M-GRAY2

20191110_rjng_236f128078

12-8078 F-15DJ ADTW M-V1

20191110_rjng_237f028801

02-8801 F-15J ADTW M-V2

METAR RJNG 100500Z 26006KT 9999 FEW030 19/02 Q1013 RMK 1CU030 A2992=

20191110_rjng_238f038105

03-8105 F-2B ADTW M-S1

20191110_rjng_239f638102

63-8102 F-2B ADTW M-S2

20191110_rjng_240f638502

63-8502 F-2A ADTW M-SILVER

20191110_rjng_241f578357

20191110_rjng_242f578357

57-8357 F-4EJk ADTW M-SKYER

20191110_rjng_243f128928

12-8928 F-15J ADTW M-BLUE

20191110_rjng_244f078431

20191110_rjng_245f578357

20191110_rjng_246f578357

来年は見ることができるのかな?

20191110_rjng_247m

これにて岐阜の千秋楽

20191110_rjng_248ja111f

ここから帰投です。

20191110_rjng_249ja111f

JA111F EA-300SC

20191110_rjng_250r676907

20191110_rjng_251r676907

67-6907 RF-4E 501SQ SENGOKU60

20191110_rjng_252t865949

86-5949 T-7 ADTW M-M どこ行くの?

20191110_rjng_253u093041

09-3041 U-125 FCS T41

20191110_rjng_254t515058

51-5058 T-400 41FTS R58

20191110_rjng_255t865949

名古屋近郊のイベントでのフライバイをしての帰りだそうな。忙しい。

20191110_rjng_256jg41843

最後に陸自さんコンビ

20191110_rjng_257jg41843

JG41843 UH-1J SD

20191110_rjng_258jg73456

JG73456 AH-1S SD

20191110_rjng_259jg73456

お疲れさまでした。

 

|

« 岐阜基地航空祭2019【飛行編1】 岐阜飛行場 2019/11/10 sun | トップページ | 定点 富山空港 2019/11/16 sat »

岐阜飛行場」カテゴリの記事

チーム室屋」カテゴリの記事

コメント

コメントを書く



(ウェブ上には掲載しません)


コメントは記事投稿者が公開するまで表示されません。



« 岐阜基地航空祭2019【飛行編1】 岐阜飛行場 2019/11/10 sun | トップページ | 定点 富山空港 2019/11/16 sat »